Time;durP1;ratioP1;P1;durP2;ratioP2;P2;SDS_P1;SDS_P2;PMS_P1;PMS_P2;Temp;Humidity;BMP_temperature;BMP_pressure;BME280_temperature;BME280_humidity;BME280_pressure;Samples;Min_cycle;Max_cycle;Signal;HPM_P1;HPM_P2
2022/07/21 00:01:35;;;;;;;4.45;3.15;;;;;;;27.73;53.31;99749.44;4964051;28;20026;-73
2022/07/21 00:04:01;;;;;;;6.55;3.00;;;;;;;27.77;53.28;99750.59;4966483;28;20046;-74
2022/07/21 00:06:27;;;;;;;6.65;3.00;;;;;;;27.79;53.84;99743.03;4963452;28;20031;-74
2022/07/21 00:08:52;;;;;;;7.68;3.42;;;;;;;27.70;53.89;99753.47;4949904;28;20039;-74
2022/07/21 00:11:18;;;;;;;5.00;3.08;;;;;;;27.69;53.76;99754.53;4962984;28;20075;-74
2022/07/21 00:13:44;;;;;;;3.90;3.15;;;;;;;27.75;53.83;99757.31;4963441;28;20137;-74
2022/07/21 00:16:09;;;;;;;6.70;3.35;;;;;;;27.81;54.04;99756.31;4949147;28;20066;-74
2022/07/21 00:18:35;;;;;;;4.50;3.40;;;;;;;27.82;54.26;99755.25;4964280;28;20039;-74
2022/07/21 00:21:01;;;;;;;7.93;3.45;;;;;;;27.79;54.62;99751.16;4966432;28;20110;-74
2022/07/21 00:23:27;;;;;;;5.45;3.20;;;;;;;27.68;55.44;99749.38;4963354;28;20098;-74
2022/07/21 00:25:54;;;;;;;7.13;3.50;;;;;;;27.48;56.50;99757.16;4966932;28;20046;-73
2022/07/21 00:28:20;;;;;;;7.30;3.42;;;;;;;27.38;56.95;99746.19;4963316;28;20031;-73
2022/07/21 00:30:46;;;;;;;6.47;3.20;;;;;;;27.14;57.86;99746.34;4965649;28;20074;-74
2022/07/21 00:33:12;;;;;;;8.55;3.63;;;;;;;27.09;57.90;99743.56;4965255;28;20062;-73
2022/07/21 00:35:37;;;;;;;7.15;2.97;;;;;;;27.14;58.32;99751.78;4961806;28;20043;-73
2022/07/21 00:38:03;;;;;;;5.88;3.15;;;;;;;27.16;58.25;99743.38;4968111;28;20043;-74
2022/07/21 00:40:29;;;;;;;3.60;3.30;;;;;;;27.20;58.27;99736.41;4959675;28;20084;-74
2022/07/21 00:42:55;;;;;;;4.53;3.10;;;;;;;27.24;57.86;99735.69;4968823;28;20076;-73
2022/07/21 00:45:21;;;;;;;8.80;3.38;;;;;;;27.29;57.91;99743.88;4983347;28;20498;-73
2022/07/21 00:47:47;;;;;;;6.03;3.42;;;;;;;27.35;57.74;99746.66;4982129;28;20042;-73
2022/07/21 00:50:16;;;;;;;7.05;2.95;;;;;;;27.40;57.17;99742.13;4983339;28;20059;-72
2022/07/21 00:52:42;;;;;;;10.93;3.37;;;;;;;27.46;56.88;99737.63;4981575;28;20038;-73
2022/07/21 00:55:10;;;;;;;4.97;2.90;;;;;;;27.52;56.47;99739.38;4985886;28;20125;-74
2022/07/21 00:57:36;;;;;;;8.60;3.35;;;;;;;27.57;55.80;99731.31;4983460;28;20433;-74
2022/07/21 01:00:08;;;;;;;6.22;3.28;;;;;;;27.60;55.59;99733.53;4983375;28;20026;-74
2022/07/21 01:02:36;;;;;;;3.55;3.28;;;;;;;27.61;56.21;99729.75;4978527;28;20042;-74
2022/07/21 01:05:07;;;;;;;4.78;3.58;;;;;;;27.61;56.26;99732.47;4984436;28;20027;-73
2022/07/21 01:07:32;;;;;;;7.57;3.25;;;;;;;27.62;56.16;99731.41;4978602;28;20039;-74
2022/07/21 01:09:59;;;;;;;7.22;3.30;;;;;;;27.63;56.00;99730.31;4983195;28;20053;-74
2022/07/21 01:12:25;;;;;;;3.30;3.00;;;;;;;27.49;56.88;99740.66;4981355;28;20030;-73
2022/07/21 01:14:51;;;;;;;5.38;3.13;;;;;;;27.23;57.74;99739.44;4983633;28;20118;-73
2022/07/21 01:17:17;;;;;;;4.72;3.05;;;;;;;27.18;58.40;99736.66;4982632;28;20053;-73
2022/07/21 01:19:43;;;;;;;3.50;3.20;;;;;;;27.16;58.86;99733.38;4984469;28;20039;-73
2022/07/21 01:22:09;;;;;;;6.43;3.67;;;;;;;27.17;59.03;99740.44;4987759;28;20034;-73
2022/07/21 01:24:35;;;;;;;3.88;3.10;;;;;;;27.17;58.79;99734.19;4984469;28;20105;-74
2022/07/21 01:27:00;;;;;;;4.03;3.63;;;;;;;27.15;59.91;99737.16;4983287;28;20030;-73
2022/07/21 01:29:26;;;;;;;7.25;3.47;;;;;;;27.12;60.41;99734.09;4980618;28;20117;-74
2022/07/21 01:31:51;;;;;;;3.67;3.20;;;;;;;27.04;60.68;99734.53;4983788;28;20058;-73
2022/07/21 01:34:20;;;;;;;6.72;3.60;;;;;;;26.92;61.25;99726.44;4982375;28;20093;-73
2022/07/21 01:36:46;;;;;;;7.32;3.33;;;;;;;26.94;61.46;99737.88;4983270;28;20046;-73
2022/07/21 01:41:57;;;;;;;14.48;3.85;;;;;;;26.56;64.03;99721.47;4984079;28;20420;-73
2022/07/21 01:44:22;;;;;;;4.78;3.92;;;;;;;26.54;64.09;99729.00;4981702;28;20097;-74
2022/07/21 01:46:50;;;;;;;8.38;3.83;;;;;;;26.53;64.56;99732.75;4983941;28;20057;-73
2022/07/21 01:49:18;;;;;;;6.95;3.70;;;;;;;26.53;64.21;99735.47;4980334;28;20061;-74
2022/07/21 01:51:44;;;;;;;7.45;3.83;;;;;;;26.44;64.97;99735.06;4980854;28;20039;-73
2022/07/21 01:54:11;;;;;;;4.32;3.90;;;;;;;26.36;65.93;99733.53;4985860;28;20045;-74
2022/07/21 01:56:38;;;;;;;6.32;3.47;;;;;;;26.32;66.38;99732.38;4980697;28;20045;-74
2022/07/21 01:59:05;;;;;;;5.88;4.07;;;;;;;26.31;66.15;99736.16;4984025;28;20034;-73
2022/07/21 02:01:31;;;;;;;6.20;3.90;;;;;;;26.29;66.64;99732.84;4982027;28;20030;-73
2022/07/21 02:04:03;;;;;;;5.55;4.18;;;;;;;26.10;67.02;99736.75;4983765;28;20573;-73
2022/07/21 02:06:29;;;;;;;3.63;3.30;;;;;;;26.07;67.03;99739.94;4978937;28;20064;-73
2022/07/21 02:08:56;;;;;;;7.32;4.07;;;;;;;26.02;67.38;99737.16;4979940;28;20427;-72
2022/07/21 02:11:21;;;;;;;4.38;3.67;;;;;;;26.03;67.93;99728.81;4983045;28;20118;-74
2022/07/21 02:13:47;;;;;;;7.85;4.03;;;;;;;26.05;68.23;99736.66;4982849;28;20122;-73
2022/07/21 02:16:14;;;;;;;5.72;4.75;;;;;;;26.01;67.90;99730.09;4982192;28;20057;-73
2022/07/21 02:18:40;;;;;;;6.93;4.68;;;;;;;25.99;67.73;99732.19;4985385;28;20525;-74
2022/07/21 02:21:06;;;;;;;11.70;4.43;;;;;;;25.93;68.03;99727.75;4983541;28;20038;-74
2022/07/21 02:23:32;;;;;;;5.97;4.97;;;;;;;25.79;68.49;99731.78;4982665;28;20479;-73
2022/07/21 02:25:58;;;;;;;5.28;4.70;;;;;;;25.77;69.12;99733.88;4982048;28;20050;-72
2022/07/21 02:28:24;;;;;;;6.72;4.70;;;;;;;25.72;69.56;99728.38;4979279;28;20118;-74
2022/07/21 02:30:50;;;;;;;5.68;4.55;;;;;;;25.67;69.94;99735.31;4982181;28;20031;-73
2022/07/21 02:33:17;;;;;;;6.05;4.70;;;;;;;25.65;70.18;99736.59;4981662;28;20042;-74
2022/07/21 02:35:43;;;;;;;6.43;4.45;;;;;;;25.71;70.09;99724.84;4981191;28;20519;-73
2022/07/21 02:38:10;;;;;;;5.60;5.10;;;;;;;25.74;69.92;99728.97;4983083;28;20480;-73
2022/07/21 02:40:36;;;;;;;7.40;4.65;;;;;;;25.77;70.30;99725.78;4981565;28;20495;-73
2022/07/21 02:43:02;;;;;;;6.10;5.35;;;;;;;25.77;70.05;99723.06;4981977;28;20108;-73
2022/07/21 02:45:27;;;;;;;5.50;5.00;;;;;;;25.76;69.68;99721.44;4983073;28;20046;-72
2022/07/21 02:47:54;;;;;;;6.97;4.68;;;;;;;25.79;69.90;99720.97;4979550;28;20077;-73
2022/07/21 02:50:22;;;;;;;6.70;4.78;;;;;;;25.71;69.83;99724.03;4981633;28;20030;-73
2022/07/21 02:52:47;;;;;;;6.45;4.55;;;;;;;25.65;70.14;99726.63;4981209;28;20035;-72
2022/07/21 02:55:13;;;;;;;5.25;4.35;;;;;;;25.66;70.30;99727.44;4983699;28;20035;-73
2022/07/21 02:57:39;;;;;;;5.80;4.50;;;;;;;25.47;71.14;99721.31;4981514;28;20118;-73
2022/07/21 03:00:07;;;;;;;4.75;4.35;;;;;;;25.45;71.35;99720.72;4980885;28;20037;-73
2022/07/21 03:02:33;;;;;;;4.78;4.38;;;;;;;25.40;71.83;99723.31;4982227;28;20038;-72
2022/07/21 03:04:58;;;;;;;4.88;4.35;;;;;;;25.31;72.06;99723.91;4979436;28;20121;-73
2022/07/21 03:07:24;;;;;;;6.07;4.18;;;;;;;25.34;72.25;99729.63;4981967;28;20118;-73
2022/07/21 03:09:50;;;;;;;8.77;4.65;;;;;;;25.38;72.23;99720.03;4980687;28;20038;-71
2022/07/21 03:12:16;;;;;;;50.65;6.45;;;;;;;25.35;71.98;99720.47;4982183;28;20027;-73
2022/07/21 03:14:41;;;;;;;7.15;4.20;;;;;;;25.31;71.86;99730.13;4981564;28;20034;-73
2022/07/21 03:17:07;;;;;;;5.07;4.40;;;;;;;25.33;72.20;99725.28;4980509;28;20038;-73
2022/07/21 03:19:32;;;;;;;5.55;4.40;;;;;;;25.33;72.57;99728.00;4982078;28;20035;-73
2022/07/21 03:21:58;;;;;;;7.15;4.45;;;;;;;25.29;73.27;99733.06;4981991;28;20098;-73
2022/07/21 03:24:24;;;;;;;6.25;4.55;;;;;;;25.11;73.89;99729.63;4978852;28;20129;-74
2022/07/21 03:26:49;;;;;;;4.97;4.47;;;;;;;24.99;74.42;99731.47;4980648;28;20045;-73
2022/07/21 03:29:15;;;;;;;5.72;4.50;;;;;;;25.00;74.47;99739.34;4980952;28;20063;-74
2022/07/21 03:31:41;;;;;;;8.90;5.03;;;;;;;24.97;74.67;99733.59;4981267;28;20035;-72
2022/07/21 03:34:06;;;;;;;5.65;4.90;;;;;;;24.71;76.12;99730.22;4980427;28;20081;-73
2022/07/21 03:36:32;;;;;;;9.05;4.93;;;;;;;24.76;75.84;99733.03;4983730;28;20046;-73
2022/07/21 03:38:58;;;;;;;5.55;5.00;;;;;;;24.82;75.92;99732.13;4979258;28;20118;-73
2022/07/21 03:41:24;;;;;;;6.72;4.82;;;;;;;24.91;75.87;99739.94;4981572;28;20037;-74
2022/07/21 03:43:49;;;;;;;5.55;4.68;;;;;;;24.91;76.14;99729.13;4978910;28;20132;-72
2022/07/21 03:46:15;;;;;;;8.82;4.82;;;;;;;24.78;76.36;99739.03;4982633;28;20042;-73
2022/07/21 03:48:40;;;;;;;4.95;4.43;;;;;;;24.80;76.40;99738.78;4981749;28;20088;-73
2022/07/21 03:51:06;;;;;;;5.72;4.10;;;;;;;24.74;76.60;99735.13;4979214;28;20113;-73
2022/07/21 03:53:32;;;;;;;7.93;5.38;;;;;;;24.64;77.27;99739.44;4983905;28;20011;-73
2022/07/21 03:55:58;;;;;;;5.85;4.90;;;;;;;24.62;77.56;99739.69;4980142;28;20035;-72
2022/07/21 03:58:23;;;;;;;6.28;4.78;;;;;;;24.65;77.68;99739.22;4981428;28;20046;-74
2022/07/21 04:00:49;;;;;;;6.55;5.10;;;;;;;24.71;77.52;99741.00;4981042;28;20038;-73
2022/07/21 04:03:15;;;;;;;6.30;4.75;;;;;;;24.67;77.46;99739.84;4979086;28;20054;-73
2022/07/21 04:05:41;;;;;;;9.13;4.78;;;;;;;24.64;77.91;99742.97;4981461;28;20038;-73
2022/07/21 04:08:09;;;;;;;5.35;4.57;;;;;;;24.62;77.57;99745.09;4979320;28;20435;-73
2022/07/21 04:10:36;;;;;;;4.85;4.45;;;;;;;24.66;77.50;99748.16;4983082;28;20453;-73
2022/07/21 04:13:07;;;;;;;9.27;4.88;;;;;;;24.66;77.88;99743.56;4981712;28;20059;-72
2022/07/21 04:15:33;;;;;;;8.38;4.80;;;;;;;24.68;77.79;99752.25;4980081;28;20030;-74
2022/07/21 04:17:59;;;;;;;7.05;5.32;;;;;;;24.69;77.92;99758.47;4984873;28;20027;-73
2022/07/21 04:20:26;;;;;;;6.57;5.47;;;;;;;24.62;78.25;99755.06;4985614;28;20050;-73
2022/07/21 04:22:52;;;;;;;7.35;6.30;;;;;;;24.39;79.82;99753.06;4985444;28;20038;-74
2022/07/21 04:25:18;;;;;;;9.43;5.82;;;;;;;24.35;80.24;99757.28;4984561;28;20035;-74
2022/07/21 04:27:46;;;;;;;7.82;5.28;;;;;;;24.36;80.28;99764.31;4986147;28;20085;-73
2022/07/21 04:30:15;;;;;;;6.53;5.53;;;;;;;24.40;80.25;99760.94;4983765;28;20085;-73
2022/07/21 04:32:41;;;;;;;7.28;5.00;;;;;;;24.42;80.35;99763.41;4984461;28;20031;-73
2022/07/21 04:35:07;;;;;;;5.32;4.82;;;;;;;24.41;80.44;99767.16;4985696;28;20085;-73
2022/07/21 04:37:34;;;;;;;8.30;5.60;;;;;;;24.42;80.63;99758.00;4985387;28;20053;-72
2022/07/21 04:40:00;;;;;;;5.30;4.80;;;;;;;24.49;80.17;99766.84;4980459;28;20031;-72
2022/07/21 04:42:26;;;;;;;5.38;4.88;;;;;;;24.50;79.81;99771.19;4982774;28;20077;-73
2022/07/21 04:44:51;;;;;;;7.00;4.55;;;;;;;24.38;80.44;99762.22;4986277;28;20061;-73
2022/07/21 04:47:17;;;;;;;5.63;5.13;;;;;;;24.37;80.96;99756.00;4983552;28;20038;-73
2022/07/21 04:49:43;;;;;;;6.20;4.40;;;;;;;24.40;80.87;99760.94;4985138;28;20488;-73
2022/07/21 04:52:08;;;;;;;8.48;5.07;;;;;;;24.49;80.60;99758.75;4984385;28;20517;-73
2022/07/21 04:54:34;;;;;;;7.38;5.63;;;;;;;24.54;80.37;99767.00;4985461;28;20039;-73
2022/07/21 04:57:02;;;;;;;5.93;5.35;;;;;;;24.59;80.20;99763.59;4985221;28;20042;-74
2022/07/21 04:59:29;;;;;;;6.20;5.45;;;;;;;24.66;80.11;99769.72;4981655;28;20031;-72
2022/07/21 05:01:55;;;;;;;5.55;5.05;;;;;;;24.55;81.10;99770.50;4986672;28;20108;-73
2022/07/21 05:04:21;;;;;;;8.10;5.35;;;;;;;24.52;80.99;99777.19;4982796;28;20356;-73
2022/07/21 05:06:47;;;;;;;9.85;5.50;;;;;;;24.52;81.57;99774.47;4985138;28;20105;-74
2022/07/21 05:09:13;;;;;;;6.43;5.13;;;;;;;24.51;82.09;99778.22;4984136;28;20031;-73
2022/07/21 05:11:38;;;;;;;9.27;5.30;;;;;;;24.46;82.47;99780.78;4985240;28;20819;-72
2022/07/21 05:14:04;;;;;;;7.68;5.47;;;;;;;24.17;84.20;99776.97;4985080;28;20037;-73
2022/07/21 05:16:30;;;;;;;7.00;6.30;;;;;;;24.28;83.69;99778.09;4982006;28;20105;-73
2022/07/21 05:18:56;;;;;;;8.50;5.82;;;;;;;24.27;83.47;99785.38;4983241;28;20053;-73
2022/07/21 05:21:21;;;;;;;7.80;5.68;;;;;;;24.29;83.30;99777.88;4983111;28;20036;-73
2022/07/21 05:23:47;;;;;;;8.93;5.57;;;;;;;24.22;83.77;99779.84;4983548;28;20039;-74
2022/07/21 05:26:13;;;;;;;8.80;5.45;;;;;;;24.21;83.86;99777.38;4984197;28;20045;-74
2022/07/21 05:28:39;;;;;;;5.68;5.18;;;;;;;24.29;83.78;99780.59;4985746;28;20049;-74
2022/07/21 05:31:05;;;;;;;7.63;6.10;;;;;;;24.40;83.75;99779.00;4984781;28;20062;-74
2022/07/21 05:33:30;;;;;;;8.02;6.13;;;;;;;24.41;84.12;99783.34;4981586;28;20069;-74
2022/07/21 05:35:56;;;;;;;8.70;6.22;;;;;;;24.39;83.94;99780.03;4985030;28;20029;-74
2022/07/21 05:38:22;;;;;;;6.53;5.50;;;;;;;24.50;83.61;99782.00;4981438;28;20037;-73
2022/07/21 05:40:48;;;;;;;10.20;5.70;;;;;;;24.59;82.95;99783.31;4983736;28;20039;-74
2022/07/21 05:43:13;;;;;;;7.88;6.07;;;;;;;24.70;83.33;99777.13;4983090;28;20085;-74
2022/07/21 05:45:39;;;;;;;7.03;5.15;;;;;;;24.75;82.27;99779.13;4984185;28;20057;-74
2022/07/21 05:48:05;;;;;;;6.50;5.85;;;;;;;24.82;81.70;99783.41;4984044;28;20105;-75
2022/07/21 05:50:30;;;;;;;9.35;5.93;;;;;;;24.94;81.83;99788.03;4978063;28;20035;-72
2022/07/21 05:52:56;;;;;;;12.45;7.03;;;;;;;25.00;81.55;99787.13;4983399;28;20110;-73
2022/07/21 05:55:22;;;;;;;8.95;5.60;;;;;;;25.04;80.95;99788.28;4984369;28;20041;-75
2022/07/21 05:57:48;;;;;;;7.82;6.22;;;;;;;25.08;81.26;99789.50;4984326;28;20041;-75
2022/07/21 06:00:15;;;;;;;7.50;6.20;;;;;;;25.00;81.78;99792.53;4983088;28;20038;-75
2022/07/21 06:02:40;;;;;;;6.57;5.80;;;;;;;24.85;82.86;99796.44;4984640;28;20431;-74
2022/07/21 06:05:08;;;;;;;7.28;5.90;;;;;;;24.69;83.85;99802.47;4981770;28;20027;-75
2022/07/21 06:07:34;;;;;;;9.57;6.05;;;;;;;24.84;83.24;99797.50;4983228;28;20459;-75
2022/07/21 06:10:00;;;;;;;9.38;6.20;;;;;;;25.03;82.83;99802.88;4977381;28;20202;-73
2022/07/21 06:12:27;;;;;;;12.75;5.78;;;;;;;25.20;81.87;99803.84;4984003;28;20022;-74
2022/07/21 06:14:52;;;;;;;9.13;5.90;;;;;;;25.36;81.24;99802.34;4974280;28;20392;-72
2022/07/21 06:17:18;;;;;;;6.60;5.75;;;;;;;25.49;80.73;99802.97;4981165;28;20339;-74
2022/07/21 06:19:44;;;;;;;11.63;6.45;;;;;;;25.60;80.37;99807.59;4983293;28;20038;-76
2022/07/21 06:22:09;;;;;;;8.15;6.72;;;;;;;25.74;79.99;99815.47;4985170;28;20105;-75
2022/07/21 06:24:35;;;;;;;7.03;6.30;;;;;;;25.82;80.01;99815.91;4974719;28;20163;-75
2022/07/21 06:27:01;;;;;;;8.93;5.38;;;;;;;25.90;79.43;99814.75;4964952;28;20073;-75
2022/07/21 06:29:28;;;;;;;11.27;6.63;;;;;;;25.99;78.62;99814.16;4983355;28;20034;-74
2022/07/21 06:31:53;;;;;;;12.13;6.47;;;;;;;26.12;78.69;99810.38;4978411;28;20639;-73
2022/07/21 06:34:19;;;;;;;7.05;6.22;;;;;;;26.16;78.63;99811.53;4974369;28;20123;-74
2022/07/21 06:36:45;;;;;;;7.45;6.57;;;;;;;26.23;78.49;99814.97;4984082;28;20085;-73
2022/07/21 06:39:12;;;;;;;8.68;6.20;;;;;;;26.27;78.02;99816.13;4980375;28;20035;-73
2022/07/21 06:41:39;;;;;;;12.43;6.20;;;;;;;26.28;78.45;99820.47;4980863;28;20043;-74
2022/07/21 06:44:11;;;;;;;8.27;6.07;;;;;;;26.36;78.53;99822.81;4981586;28;20066;-74
2022/07/21 06:46:37;;;;;;;8.15;7.35;;;;;;;26.37;77.89;99819.06;4983011;28;20136;-73
2022/07/21 06:49:02;;;;;;;6.75;6.13;;;;;;;26.43;77.93;99818.09;4982763;28;20027;-73
2022/07/21 06:51:29;;;;;;;8.02;7.30;;;;;;;26.41;77.89;99822.94;4981556;28;20085;-74
2022/07/21 06:53:55;;;;;;;9.13;7.10;;;;;;;26.44;77.99;99819.75;4982984;28;20442;-73
2022/07/21 06:56:20;;;;;;;8.45;7.10;;;;;;;26.52;77.61;99815.00;4980239;28;20066;-74
2022/07/21 06:58:48;;;;;;;8.32;6.78;;;;;;;26.67;77.28;99818.03;4982191;28;20041;-73
2022/07/21 07:01:16;;;;;;;13.45;6.97;;;;;;;26.79;76.02;99818.81;4981483;28;20035;-74
2022/07/21 07:03:42;;;;;;;7.43;6.72;;;;;;;26.88;75.81;99820.09;4981537;28;20038;-74
2022/07/21 07:06:09;;;;;;;8.50;6.97;;;;;;;26.99;74.79;99819.19;4982356;28;20041;-73
2022/07/21 07:08:34;;;;;;;7.43;6.72;;;;;;;27.14;74.35;99815.97;4981035;28;20053;-73
2022/07/21 07:11:01;;;;;;;8.98;7.93;;;;;;;27.24;73.56;99822.38;4983452;28;20066;-73
2022/07/21 07:13:26;;;;;;;15.00;8.45;;;;;;;27.21;72.36;99822.88;4979699;28;20464;-73
2022/07/21 07:15:52;;;;;;;10.57;8.55;;;;;;;26.97;73.78;99829.47;4981065;28;20510;-74
2022/07/21 07:18:20;;;;;;;8.80;8.13;;;;;;;27.11;73.28;99821.84;4975474;28;20035;-73
2022/07/21 07:20:46;;;;;;;11.35;6.97;;;;;;;27.33;72.57;99824.69;4983533;28;20447;-74
2022/07/21 07:23:12;;;;;;;8.80;7.90;;;;;;;27.51;71.79;99829.91;4981256;28;20038;-73
2022/07/21 07:25:38;;;;;;;10.95;8.23;;;;;;;27.67;70.79;99831.78;4983455;28;20039;-73
2022/07/21 07:28:05;;;;;;;9.15;7.05;;;;;;;27.80;70.12;99836.88;4982328;28;20034;-74
2022/07/21 07:30:30;;;;;;;10.40;7.00;;;;;;;27.96;69.60;99827.06;4977284;28;20472;-73
2022/07/21 07:32:56;;;;;;;11.52;8.07;;;;;;;28.10;68.88;99837.28;4982933;28;20102;-74
2022/07/21 07:35:22;;;;;;;9.90;7.80;;;;;;;28.18;68.45;99827.13;4980121;28;20061;-74
2022/07/21 07:37:48;;;;;;;11.13;7.30;;;;;;;28.31;67.97;99829.47;4982971;28;20041;-73
2022/07/21 07:40:18;;;;;;;11.10;7.25;;;;;;;28.43;67.77;99830.16;4982843;28;20092;-73
2022/07/21 07:42:45;;;;;;;14.87;7.20;;;;;;;28.46;68.29;99830.47;4980812;28;20416;-74
2022/07/21 07:45:11;;;;;;;7.72;6.97;;;;;;;28.56;66.71;99832.50;4983549;28;20046;-74
2022/07/21 07:47:37;;;;;;;12.35;8.38;;;;;;;28.56;65.53;99824.38;4981559;28;20046;-73
2022/07/21 07:50:05;;;;;;;9.65;7.55;;;;;;;28.60;65.93;99817.34;4982693;28;20027;-73
2022/07/21 07:52:31;;;;;;;8.45;7.63;;;;;;;28.68;66.10;99824.22;4981981;28;20034;-73
2022/07/21 07:54:57;;;;;;;9.38;8.35;;;;;;;28.73;64.02;99814.28;4980828;28;20365;-73
2022/07/21 07:57:22;;;;;;;7.68;6.97;;;;;;;28.80;64.52;99823.03;4984509;28;20034;-75
2022/07/21 07:59:48;;;;;;;8.52;7.80;;;;;;;28.89;63.55;99813.34;4982419;28;20043;-74
2022/07/21 08:02:13;;;;;;;15.25;7.72;;;;;;;28.96;62.97;99817.75;4981954;28;20023;-73
2022/07/21 08:04:40;;;;;;;12.15;7.57;;;;;;;29.01;62.98;99815.91;4966271;28;20421;-73
2022/07/21 08:07:07;;;;;;;9.55;7.53;;;;;;;29.09;63.06;99811.91;4964404;28;20063;-72
2022/07/21 08:09:32;;;;;;;11.15;7.50;;;;;;;29.17;63.18;99814.16;4976092;28;20040;-70
2022/07/21 08:11:58;;;;;;;7.80;6.75;;;;;;;29.20;62.90;99800.06;4982964;28;20117;-73
2022/07/21 08:14:23;;;;;;;8.73;7.05;;;;;;;29.25;62.71;99805.53;4975133;28;20093;-72
2022/07/21 08:16:49;;;;;;;12.52;7.53;;;;;;;29.29;62.38;99801.22;4971503;28;20050;-72
2022/07/21 08:19:14;;;;;;;7.55;6.70;;;;;;;29.35;60.93;99804.81;4981950;28;20040;-74
2022/07/21 08:21:40;;;;;;;10.60;7.03;;;;;;;29.46;59.59;99807.38;4985181;28;20038;-70
2022/07/21 08:24:06;;;;;;;10.10;6.60;;;;;;;29.57;59.09;99802.84;4985673;28;20435;-74
2022/07/21 08:26:32;;;;;;;10.73;6.57;;;;;;;29.74;57.63;99799.97;4983150;28;20039;-71
2022/07/21 08:28:58;;;;;;;7.22;6.22;;;;;;;29.84;57.51;99798.13;4981596;28;20034;-72
2022/07/21 08:31:24;;;;;;;10.98;6.43;;;;;;;29.92;57.39;99803.13;4979450;28;20039;-75
2022/07/21 08:33:51;;;;;;;11.45;7.10;;;;;;;30.00;56.32;99802.59;4982220;28;20042;-74
2022/07/21 08:36:19;;;;;;;7.22;6.20;;;;;;;30.01;56.00;99806.13;4985517;28;20570;-75
2022/07/21 08:38:44;;;;;;;8.32;7.53;;;;;;;30.09;55.41;99800.22;4984116;28;20034;-74
2022/07/21 08:41:11;;;;;;;10.98;7.00;;;;;;;30.13;55.05;99797.75;4984917;28;20030;-74
2022/07/21 08:43:37;;;;;;;9.25;6.78;;;;;;;30.17;54.26;99796.13;4983887;28;20538;-73
2022/07/21 08:46:04;;;;;;;8.85;6.93;;;;;;;30.17;54.32;99796.97;4985368;28;20197;-73
2022/07/21 08:48:31;;;;;;;9.80;6.72;;;;;;;30.18;54.76;99786.91;4982602;28;20399;-75
2022/07/21 08:50:57;;;;;;;9.30;6.43;;;;;;;30.17;54.03;99794.25;4981381;28;20443;-73
2022/07/21 08:53:24;;;;;;;7.68;6.68;;;;;;;30.19;54.08;99794.81;4983862;28;20411;-73
2022/07/21 08:55:50;;;;;;;10.75;7.55;;;;;;;30.22;54.38;99801.63;4981696;28;20390;-74
2022/07/21 08:58:16;;;;;;;9.60;6.50;;;;;;;30.24;54.28;99794.81;4984027;28;20100;-74
2022/07/21 09:00:46;;;;;;;11.93;6.55;;;;;;;30.27;53.56;99790.75;4983723;28;20035;-74
2022/07/21 09:03:23;;;;;;;11.20;6.68;;;;;;;30.41;52.31;99792.72;4985594;28;20037;-74
2022/07/21 09:06:07;;;;;;;7.38;6.03;;;;;;;30.55;51.44;99786.81;4983205;28;20065;-74
2022/07/21 09:08:34;;;;;;;6.53;5.90;;;;;;;30.62;51.50;99788.19;4979126;28;20062;-73
2022/07/21 09:11:15;;;;;;;9.38;7.00;;;;;;;30.76;50.44;99802.94;4977115;28;20041;-74
2022/07/21 09:13:42;;;;;;;9.63;6.63;;;;;;;30.82;49.80;99793.69;4979852;28;20034;-76
2022/07/21 09:16:09;;;;;;;7.90;6.88;;;;;;;30.82;49.21;99798.31;4983678;28;20438;-75
2022/07/21 09:18:47;;;;;;;9.98;6.57;;;;;;;30.89;48.78;99801.59;4982893;28;20097;-75
2022/07/21 09:21:15;;;;;;;9.27;6.75;;;;;;;30.92;48.57;99792.91;4980633;28;20130;-75
2022/07/21 09:23:41;;;;;;;7.65;6.20;;;;;;;31.04;49.15;99795.41;4984200;28;20036;-75
2022/07/21 09:26:06;;;;;;;9.65;7.35;;;;;;;31.14;48.21;99790.75;4983456;28;20121;-75
2022/07/21 09:28:32;;;;;;;11.07;6.03;;;;;;;31.18;48.43;99791.84;4981591;28;20034;-73
2022/07/21 09:31:03;;;;;;;9.10;6.28;;;;;;;31.26;47.66;99790.50;4978748;28;20023;-75
2022/07/21 09:33:32;;;;;;;10.93;7.40;;;;;;;31.29;48.30;99785.31;4983851;28;20073;-74
2022/07/21 09:36:02;;;;;;;9.75;7.15;;;;;;;31.33;48.62;99787.50;4985316;28;20041;-73
2022/07/21 09:38:30;;;;;;;7.30;6.28;;;;;;;31.37;48.59;99783.13;4971401;28;20121;-72
2022/07/21 09:41:03;;;;;;;15.65;6.47;;;;;;;31.36;49.48;99782.31;4980882;28;20038;-74
2022/07/21 09:43:52;;;;;;;9.98;6.10;;;;;;;31.34;49.29;99780.97;4688221;28;10000565;-72
2022/07/21 09:46:20;;;;;;;7.50;6.57;;;;;;;31.19;49.41;99777.13;4282928;28;10000707;-75
2022/07/21 09:48:49;;;;;;;9.98;7.40;;;;;;;31.10;49.51;99778.78;4975532;28;20062;-73
2022/07/21 09:51:26;;;;;;;13.40;6.85;;;;;;;31.09;50.14;99771.69;4972128;28;20571;-73
2022/07/21 09:53:57;;;;;;;12.02;6.38;;;;;;;31.13;49.68;99774.69;4977270;28;20451;-73
2022/07/21 09:56:24;;;;;;;8.98;6.50;;;;;;;31.20;49.12;99773.31;4970446;28;20035;-72
2022/07/21 09:58:52;;;;;;;12.80;6.47;;;;;;;31.29;48.74;99771.66;4973403;28;20095;-74
2022/07/21 10:01:18;;;;;;;8.20;6.18;;;;;;;31.39;48.49;99770.03;4981738;28;20023;-74
2022/07/21 10:03:46;;;;;;;7.13;6.43;;;;;;;31.44;47.77;99772.75;4976217;28;20034;-73
2022/07/21 10:06:14;;;;;;;6.60;6.00;;;;;;;31.52;46.56;99766.75;4980158;28;20022;-73
2022/07/21 10:08:40;;;;;;;10.32;6.18;;;;;;;31.68;44.87;99768.41;4975809;28;20042;-74
2022/07/21 10:11:08;;;;;;;8.30;5.97;;;;;;;31.68;45.24;99762.94;4980413;28;20065;-76
2022/07/21 10:13:34;;;;;;;7.57;5.78;;;;;;;31.71;45.40;99773.28;4974609;28;20037;-75
2022/07/21 10:16:01;;;;;;;6.30;5.65;;;;;;;31.77;45.09;99769.47;4976525;28;20395;-75
2022/07/21 10:18:30;;;;;;;8.30;5.50;;;;;;;31.89;43.33;99769.16;4974394;28;20363;-75
2022/07/21 10:21:02;;;;;;;10.05;5.78;;;;;;;31.95;43.18;99768.88;4976114;28;20498;-76
2022/07/21 10:23:41;;;;;;;6.90;6.20;;;;;;;31.99;42.73;99763.66;4977022;28;20045;-73
2022/07/21 10:26:08;;;;;;;6.32;5.65;;;;;;;32.04;42.79;99767.22;4974595;28;20391;-74
2022/07/21 10:28:34;;;;;;;16.65;6.93;;;;;;;32.19;40.49;99765.53;4976960;28;20053;-72
2022/07/21 10:31:13;;;;;;;6.72;6.00;;;;;;;32.21;41.07;99757.91;4978031;28;20389;-74
2022/07/21 10:33:45;;;;;;;8.15;5.45;;;;;;;32.28;41.01;99761.16;4978667;28;20042;-73
2022/07/21 10:36:33;;;;;;;7.10;6.03;;;;;;;32.29;41.30;99757.28;4975445;28;20035;-74
2022/07/21 10:39:17;;;;;;;8.90;5.57;;;;;;;32.37;39.68;99756.72;4964788;28;20123;-73
2022/07/21 10:42:15;;;;;;;9.23;5.63;;;;;;;32.45;40.79;99747.94;4975369;28;20101;-72
2022/07/21 10:44:43;;;;;;;8.55;5.78;;;;;;;32.53;39.77;99759.09;4978588;28;20038;-74
2022/07/21 10:47:18;;;;;;;9.57;5.32;;;;;;;32.59;39.80;99746.22;4973175;28;20050;-74
2022/07/21 10:49:58;;;;;;;11.10;6.45;;;;;;;32.65;39.25;99750.53;4978503;28;20038;-74
2022/07/21 10:52:39;;;;;;;8.60;5.80;;;;;;;32.71;38.47;99745.91;4978788;28;20031;-73
2022/07/21 10:55:26;;;;;;;7.47;5.30;;;;;;;32.73;39.30;99747.25;4976661;28;20400;-74
2022/07/21 10:58:15;;;;;;;8.20;5.10;;;;;;;32.86;38.65;99746.63;4976796;28;20038;-72
2022/07/21 11:00:54;;;;;;;9.05;5.55;;;;;;;32.97;38.28;99746.53;4976356;28;20096;-73
2022/07/21 11:03:23;;;;;;;6.13;5.63;;;;;;;33.00;37.90;99745.94;4626226;28;10000520;-73
2022/07/21 11:06:12;;;;;;;9.07;5.93;;;;;;;32.93;37.98;99738.91;4976758;28;20117;-73
2022/07/21 11:08:42;;;;;;;6.25;5.63;;;;;;;32.93;38.14;99738.06;4967892;28;20050;-72
2022/07/21 11:11:10;;;;;;;5.97;5.38;;;;;;;32.92;38.04;99728.28;4972677;28;20041;-71
2022/07/21 11:14:00;;;;;;;6.47;5.68;;;;;;;32.89;39.46;99726.91;4977327;28;20232;-74
2022/07/21 11:16:41;;;;;;;8.50;5.75;;;;;;;32.91;39.56;99727.44;4976354;28;20051;-73
2022/07/21 11:19:28;;;;;;;6.70;5.43;;;;;;;33.00;39.55;99721.34;4976606;28;20065;-71
2022/07/21 11:21:56;;;;;;;8.00;4.85;;;;;;;33.03;39.43;99721.63;4975566;28;20046;-72
2022/07/21 11:24:24;;;;;;;6.65;5.45;;;;;;;33.06;39.43;99720.22;4975165;28;20037;-74
2022/07/21 11:27:00;;;;;;;7.32;5.35;;;;;;;33.12;38.62;99714.41;4979670;28;20034;-72
2022/07/21 11:29:29;;;;;;;13.45;6.13;;;;;;;33.21;38.36;99711.91;4979667;28;20109;-72
2022/07/21 11:31:56;;;;;;;6.50;5.35;;;;;;;33.28;38.92;99709.66;4980541;28;20042;-73
2022/07/21 11:34:23;;;;;;;9.00;5.55;;;;;;;33.28;39.18;99701.47;4975012;28;20031;-73
2022/07/21 11:37:01;;;;;;;10.52;6.38;;;;;;;33.30;38.35;99699.25;4974627;28;20042;-73